Time;durP1;ratioP1;P1;durP2;ratioP2;P2;SDS_P1;SDS_P2;PMS_P1;PMS_P2;Temp;Humidity;BMP_temperature;BMP_pressure;BME280_temperature;BME280_humidity;BME280_pressure;Samples;Min_cycle;Max_cycle;Signal;HPM_P1;HPM_P2
2023/03/09 00:01:46;;;;;;;26.63;12.30;;;2.00;99.90;;;;;;5081147;28;20052;-71
2023/03/09 00:04:14;;;;;;;28.15;13.40;;;2.00;99.90;;;;;;5068325;28;20043;-71
2023/03/09 00:06:41;;;;;;;25.42;12.48;;;1.90;99.90;;;;;;5085541;28;20054;-71
2023/03/09 00:09:07;;;;;;;28.67;13.70;;;2.00;99.90;;;;;;5065367;28;20051;-71
2023/03/09 00:11:33;;;;;;;24.80;12.95;;;1.90;99.90;;;;;;5068206;28;20058;-71
2023/03/09 00:13:59;;;;;;;23.83;12.10;;;1.90;99.90;;;;;;5064946;28;20032;-71
2023/03/09 00:16:27;;;;;;;25.15;12.23;;;2.00;99.90;;;;;;5066531;28;20124;-71
2023/03/09 00:18:56;;;;;;;25.33;12.90;;;2.00;99.90;;;;;;5065476;28;20043;-71
2023/03/09 00:21:34;;;;;;;25.27;12.60;;;1.90;99.90;;;;;;5047949;28;21349;-71
2023/03/09 00:24:24;;;;;;;25.77;12.80;;;1.90;99.90;;;;;;5060406;28;20440;-71
2023/03/09 00:26:58;;;;;;;23.42;11.63;;;1.90;99.90;;;;;;5063103;28;20106;-71
2023/03/09 00:29:26;;;;;;;22.65;10.77;;;1.90;99.90;;;;;;5068322;28;20066;-71
2023/03/09 00:31:53;;;;;;;23.33;11.73;;;1.90;99.90;;;;;;5061141;28;20067;-71
2023/03/09 00:34:19;;;;;;;23.20;11.65;;;1.90;99.90;;;;;;5067712;28;20032;-71
2023/03/09 00:36:45;;;;;;;24.42;11.80;;;1.90;99.90;;;;;;5067052;28;20028;-71
2023/03/09 00:39:15;;;;;;;24.63;12.02;;;1.90;99.90;;;;;;5063214;28;20039;-71
2023/03/09 00:41:41;;;;;;;22.02;11.35;;;1.90;99.90;;;;;;5062503;28;20127;-71
2023/03/09 00:44:07;;;;;;;23.85;12.75;;;1.80;99.90;;;;;;5063852;28;20573;-71
2023/03/09 00:46:34;;;;;;;24.55;12.07;;;1.80;99.90;;;;;;5061073;28;20119;-71
2023/03/09 00:49:02;;;;;;;26.77;11.98;;;1.80;99.90;;;;;;5050175;28;20121;-71
2023/03/09 00:51:27;;;;;;;24.63;12.40;;;1.70;99.90;;;;;;5067801;28;20044;-71
2023/03/09 00:53:55;;;;;;;22.75;10.23;;;1.70;99.90;;;;;;5068519;28;20039;-71
2023/03/09 00:56:25;;;;;;;23.33;9.93;;;1.80;99.90;;;;;;5058330;28;20092;-71
2023/03/09 00:58:52;;;;;;;19.90;10.77;;;1.70;99.90;;;;;;5063894;28;20456;-71
2023/03/09 01:01:18;;;;;;;21.42;10.57;;;1.70;99.90;;;;;;5064839;28;20050;-71
2023/03/09 01:03:44;;;;;;;19.75;9.50;;;1.70;99.90;;;;;;5049291;28;20040;-71
2023/03/09 01:06:11;;;;;;;21.02;10.25;;;1.60;99.90;;;;;;5048219;28;20045;-71
2023/03/09 01:08:36;;;;;;;20.40;10.40;;;1.60;99.90;;;;;;5049710;28;20060;-71
2023/03/09 01:11:06;;;;;;;24.35;10.93;;;1.60;99.90;;;;;;5048742;28;20074;-71
2023/03/09 01:13:32;;;;;;;20.42;10.82;;;1.50;99.90;;;;;;5067894;28;20043;-71
2023/03/09 01:15:58;;;;;;;19.10;10.32;;;1.50;99.90;;;;;;5060243;28;20045;-71
2023/03/09 01:18:23;;;;;;;22.15;10.82;;;1.40;99.90;;;;;;5059886;28;20042;-71
2023/03/09 01:20:49;;;;;;;20.65;10.82;;;1.40;99.90;;;;;;5062647;28;20439;-71
2023/03/09 01:23:14;;;;;;;21.52;10.45;;;1.30;99.90;;;;;;5041924;28;20060;-70
2023/03/09 01:25:40;;;;;;;17.88;7.68;;;1.30;99.90;;;;;;5067564;28;20121;-71
2023/03/09 01:28:05;;;;;;;21.85;10.52;;;1.20;99.90;;;;;;5063367;28;20036;-71
2023/03/09 01:30:31;;;;;;;20.05;9.98;;;1.30;99.90;;;;;;5047178;28;20640;-71
2023/03/09 01:32:57;;;;;;;18.65;10.20;;;1.20;99.90;;;;;;5065758;28;20040;-71
2023/03/09 01:35:24;;;;;;;19.90;10.70;;;1.20;99.90;;;;;;5050265;28;20127;-71
2023/03/09 01:37:49;;;;;;;21.35;10.75;;;1.10;99.90;;;;;;5062081;28;20162;-71
2023/03/09 01:40:21;;;;;;;23.15;10.63;;;1.10;99.90;;;;;;5048254;28;20047;-71
2023/03/09 01:43:01;;;;;;;19.90;9.90;;;1.10;99.90;;;;;;5067632;28;20048;-71
2023/03/09 01:45:29;;;;;;;20.45;10.88;;;1.10;99.90;;;;;;5050102;28;20072;-71
2023/03/09 01:47:59;;;;;;;21.85;10.48;;;1.00;99.90;;;;;;5065989;28;20101;-71
2023/03/09 01:50:30;;;;;;;18.63;8.82;;;0.90;99.90;;;;;;5082199;28;20032;-71
2023/03/09 01:53:00;;;;;;;19.80;9.40;;;0.90;99.90;;;;;;5082495;28;20063;-70
2023/03/09 01:55:31;;;;;;;23.30;11.25;;;1.00;99.90;;;;;;5049730;28;20064;-70
2023/03/09 01:58:07;;;;;;;20.45;10.60;;;0.90;99.90;;;;;;5065177;28;20059;-70
2023/03/09 02:00:35;;;;;;;20.48;10.95;;;0.90;99.90;;;;;;5045123;28;20120;-71
2023/03/09 02:03:15;;;;;;;20.75;10.18;;;0.90;99.90;;;;;;5039138;28;20098;-70
2023/03/09 02:05:59;;;;;;;21.73;10.10;;;0.90;99.90;;;;;;5056924;28;20415;-70
2023/03/09 02:08:27;;;;;;;20.50;9.27;;;0.80;99.90;;;;;;5066227;28;20043;-70
2023/03/09 02:10:58;;;;;;;25.80;10.40;;;0.80;99.90;;;;;;5062858;28;20039;-70
2023/03/09 02:13:37;;;;;;;20.85;10.88;;;0.80;99.90;;;;;;5059844;28;20056;-71
2023/03/09 02:16:03;;;;;;;21.95;10.57;;;0.70;99.90;;;;;;5056874;28;20115;-71
2023/03/09 02:18:29;;;;;;;21.75;11.07;;;0.70;99.90;;;;;;5079157;28;20111;-70
2023/03/09 02:21:24;;;;;;;16.05;8.13;;;0.70;99.90;;;;;;5047937;28;20036;-71
2023/03/09 02:23:49;;;;;;;;;;;0.70;99.90;;;;;;5062756;28;20113;-71
2023/03/09 02:26:33;;;;;;;22.13;11.32;;;0.80;99.90;;;;;;5066838;28;20318;-71
2023/03/09 02:29:00;;;;;;;20.95;10.88;;;0.80;99.90;;;;;;5063517;28;20066;-71
2023/03/09 02:31:26;;;;;;;22.73;10.93;;;0.80;99.90;;;;;;5081105;28;20039;-71
2023/03/09 02:33:52;;;;;;;20.83;9.90;;;0.70;99.90;;;;;;5067138;28;20054;-71
2023/03/09 02:36:17;;;;;;;24.33;11.25;;;0.80;99.90;;;;;;5083894;28;20028;-71
2023/03/09 02:38:43;;;;;;;24.55;11.63;;;0.80;99.90;;;;;;5066289;28;20039;-71
2023/03/09 02:41:12;;;;;;;21.65;10.43;;;0.80;99.90;;;;;;5081656;28;20859;-71
2023/03/09 02:43:45;;;;;;;21.50;10.52;;;0.80;99.90;;;;;;5082633;28;20497;-71
2023/03/09 02:46:11;;;;;;;21.38;11.73;;;0.90;99.90;;;;;;5046326;28;20115;-71
2023/03/09 02:48:37;;;;;;;21.85;11.23;;;0.90;99.90;;;;;;5069604;28;20500;-71
2023/03/09 02:51:03;;;;;;;23.13;11.15;;;0.90;99.90;;;;;;5066100;28;20411;-71
2023/03/09 02:53:28;;;;;;;23.13;11.05;;;0.90;99.90;;;;;;5064702;28;20047;-71
2023/03/09 02:55:54;;;;;;;21.70;10.60;;;0.90;99.90;;;;;;5053283;28;20138;-71
2023/03/09 02:58:20;;;;;;;19.77;9.07;;;0.90;99.90;;;;;;5072154;28;20044;-71
2023/03/09 03:00:45;;;;;;;21.70;10.70;;;0.90;99.90;;;;;;5068305;28;20386;-71
2023/03/09 03:03:11;;;;;;;19.20;9.63;;;0.90;99.90;;;;;;5069251;28;20036;-71
2023/03/09 03:05:36;;;;;;;22.13;10.82;;;0.90;99.90;;;;;;5050550;28;20028;-71
2023/03/09 03:08:02;;;;;;;21.40;11.38;;;0.90;99.90;;;;;;5067439;28;20816;-71
2023/03/09 03:10:28;;;;;;;22.52;11.70;;;0.90;99.90;;;;;;5050093;28;20040;-71
2023/03/09 03:12:53;;;;;;;21.00;10.82;;;0.90;99.90;;;;;;5065341;28;20039;-71
2023/03/09 03:15:19;;;;;;;22.20;10.65;;;0.90;99.90;;;;;;5051561;28;20158;-71
2023/03/09 03:17:45;;;;;;;22.35;10.98;;;0.90;99.90;;;;;;5052040;28;20089;-71
2023/03/09 03:20:13;;;;;;;23.98;11.40;;;0.90;99.90;;;;;;5051888;28;20036;-71
2023/03/09 03:22:42;;;;;;;25.15;12.43;;;0.90;99.90;;;;;;5048075;28;20041;-71
2023/03/09 03:25:08;;;;;;;26.52;12.63;;;0.90;99.90;;;;;;5065702;28;20048;-71
2023/03/09 03:27:34;;;;;;;28.63;12.68;;;0.90;99.90;;;;;;5066760;28;20043;-71
2023/03/09 03:30:00;;;;;;;23.90;12.20;;;0.90;99.90;;;;;;5069539;28;20686;-72
2023/03/09 03:32:26;;;;;;;22.02;9.90;;;0.90;99.90;;;;;;5064221;28;20047;-71
2023/03/09 03:34:52;;;;;;;26.75;12.63;;;0.90;99.90;;;;;;5082582;28;20554;-72
2023/03/09 03:37:18;;;;;;;24.25;11.88;;;0.80;99.90;;;;;;5065509;28;20039;-72
2023/03/09 03:39:43;;;;;;;29.02;13.70;;;0.80;99.90;;;;;;5067899;28;20094;-72
2023/03/09 03:42:09;;;;;;;28.67;12.90;;;0.80;99.90;;;;;;5065040;28;20024;-72
2023/03/09 03:44:34;;;;;;;28.05;12.90;;;0.80;99.90;;;;;;5051745;28;20033;-72
2023/03/09 03:47:00;;;;;;;27.45;13.32;;;0.80;99.90;;;;;;5062493;28;20032;-72
2023/03/09 03:49:26;;;;;;;24.92;13.02;;;0.80;99.90;;;;;;5063453;28;20496;-72
2023/03/09 03:51:51;;;;;;;27.77;13.40;;;0.80;99.90;;;;;;5068642;28;20040;-72
2023/03/09 03:54:17;;;;;;;28.50;14.00;;;0.80;99.90;;;;;;5065531;28;20029;-72
2023/03/09 03:56:42;;;;;;;26.85;13.70;;;0.80;99.90;;;;;;5043081;28;20051;-72
2023/03/09 03:59:08;;;;;;;28.60;13.00;;;0.80;99.90;;;;;;5068607;28;20036;-72
2023/03/09 04:01:34;;;;;;;31.08;14.98;;;0.80;99.90;;;;;;5066389;28;20055;-72
2023/03/09 04:04:00;;;;;;;30.27;13.48;;;0.80;99.90;;;;;;5050613;28;20047;-72
2023/03/09 04:06:25;;;;;;;28.25;14.35;;;0.80;99.90;;;;;;5063759;28;20036;-72
2023/03/09 04:08:51;;;;;;;27.70;13.80;;;0.80;99.90;;;;;;5068529;28;20118;-72
2023/03/09 04:11:16;;;;;;;28.58;14.18;;;0.70;99.90;;;;;;5069348;28;20492;-72
2023/03/09 04:13:42;;;;;;;29.08;13.93;;;0.80;99.90;;;;;;5068354;28;20492;-72
2023/03/09 04:16:08;;;;;;;29.77;14.38;;;0.80;99.90;;;;;;5061785;28;20042;-72
2023/03/09 04:18:34;;;;;;;30.17;13.35;;;0.80;99.90;;;;;;5065703;28;20408;-72
2023/03/09 04:20:59;;;;;;;28.10;13.20;;;0.70;99.90;;;;;;5068911;28;20123;-72
2023/03/09 04:23:25;;;;;;;27.67;12.60;;;0.70;99.90;;;;;;5065288;28;20043;-71
2023/03/09 04:25:55;;;;;;;30.38;14.60;;;0.80;99.90;;;;;;5049794;28;20047;-72
2023/03/09 04:28:21;;;;;;;23.08;10.32;;;0.80;99.90;;;;;;5065083;28;20040;-72
2023/03/09 04:30:46;;;;;;;28.17;13.65;;;0.80;99.90;;;;;;5065568;28;20483;-72
2023/03/09 04:33:12;;;;;;;29.77;13.15;;;0.80;99.90;;;;;;5051179;28;20046;-72
2023/03/09 04:35:37;;;;;;;30.27;14.80;;;0.80;99.90;;;;;;5067582;28;20083;-72
2023/03/09 04:38:03;;;;;;;30.48;14.73;;;0.80;99.90;;;;;;5061297;28;20074;-72
2023/03/09 04:40:29;;;;;;;27.95;14.07;;;0.80;99.90;;;;;;5068361;28;20040;-72
2023/03/09 04:42:55;;;;;;;33.38;15.90;;;0.80;99.90;;;;;;5065522;28;20043;-72
2023/03/09 04:45:20;;;;;;;31.55;14.35;;;0.80;99.90;;;;;;5065907;28;20040;-72
2023/03/09 04:47:46;;;;;;;29.52;14.68;;;0.80;99.90;;;;;;5049556;28;20043;-72
2023/03/09 04:50:11;;;;;;;31.08;14.13;;;0.70;99.90;;;;;;5047960;28;20063;-72
2023/03/09 04:52:37;;;;;;;30.20;15.45;;;0.70;99.90;;;;;;5085598;28;20043;-70
2023/03/09 04:55:03;;;;;;;33.53;14.90;;;0.60;99.90;;;;;;5060818;28;20119;-70
2023/03/09 04:57:28;;;;;;;31.77;15.13;;;0.60;99.90;;;;;;5067335;28;20046;-70
2023/03/09 04:59:55;;;;;;;29.63;14.73;;;0.60;99.90;;;;;;5062691;28;20040;-70
2023/03/09 05:02:21;;;;;;;30.35;14.48;;;0.60;99.90;;;;;;5083370;28;20041;-70
2023/03/09 05:04:46;;;;;;;34.50;15.55;;;0.60;99.90;;;;;;5060897;28;20510;-70
2023/03/09 05:07:12;;;;;;;28.02;13.27;;;0.60;99.90;;;;;;5083602;28;20040;-71
2023/03/09 05:09:37;;;;;;;34.47;15.38;;;0.60;99.90;;;;;;5085908;28;20039;-71
2023/03/09 05:12:04;;;;;;;32.33;15.65;;;0.70;99.90;;;;;;5064079;28;20047;-71
2023/03/09 05:14:30;;;;;;;32.53;15.77;;;0.70;99.90;;;;;;5086228;28;20041;-71
2023/03/09 05:16:55;;;;;;;33.88;15.50;;;0.70;99.90;;;;;;5063296;28;20054;-71
2023/03/09 05:19:22;;;;;;;34.97;15.63;;;0.70;99.90;;;;;;5050295;28;20028;-71
2023/03/09 05:21:47;;;;;;;32.88;15.75;;;0.70;99.90;;;;;;5083457;28;20707;-71
2023/03/09 05:24:13;;;;;;;28.05;12.32;;;0.70;99.90;;;;;;5064896;28;20079;-71
2023/03/09 05:26:39;;;;;;;30.42;15.32;;;0.80;99.90;;;;;;5066804;28;20089;-71
2023/03/09 05:29:04;;;;;;;30.30;14.95;;;0.80;99.90;;;;;;5063037;28;20044;-71
2023/03/09 05:31:30;;;;;;;31.30;14.93;;;0.80;99.90;;;;;;5048491;28;20071;-71
2023/03/09 05:33:56;;;;;;;31.58;14.70;;;0.80;99.90;;;;;;5052071;28;20039;-70
2023/03/09 05:36:26;;;;;;;31.83;14.82;;;0.80;99.90;;;;;;5050208;28;20044;-71
2023/03/09 05:38:52;;;;;;;33.90;16.58;;;0.80;99.90;;;;;;5080590;28;20048;-71
2023/03/09 05:41:19;;;;;;;29.42;15.13;;;0.70;99.90;;;;;;5047328;28;20047;-71
2023/03/09 05:43:44;;;;;;;29.83;14.50;;;0.70;99.90;;;;;;5063981;28;20032;-71
2023/03/09 05:46:12;;;;;;;22.15;10.10;;;0.70;99.90;;;;;;5067268;28;20040;-71
2023/03/09 05:48:39;;;;;;;28.35;14.60;;;0.80;99.90;;;;;;5060529;28;20463;-71
2023/03/09 05:51:05;;;;;;;30.55;15.07;;;0.80;99.90;;;;;;5085905;28;20074;-71
2023/03/09 05:53:32;;;;;;;23.17;10.75;;;0.80;99.90;;;;;;5049195;28;20046;-70
2023/03/09 05:55:58;;;;;;;28.58;13.60;;;0.80;99.90;;;;;;5049474;28;20119;-71
2023/03/09 05:58:24;;;;;;;28.60;15.18;;;0.90;99.90;;;;;;5085376;28;20079;-71
2023/03/09 06:00:52;;;;;;;31.02;14.07;;;0.90;99.90;;;;;;5063236;28;20538;-71
2023/03/09 06:03:20;;;;;;;29.85;14.80;;;1.00;99.90;;;;;;5064532;28;20495;-71
2023/03/09 06:05:46;;;;;;;30.70;14.80;;;1.00;99.90;;;;;;5066610;28;20069;-71
2023/03/09 06:08:12;;;;;;;29.70;15.80;;;1.00;99.90;;;;;;5084366;28;20403;-71
2023/03/09 06:10:38;;;;;;;29.63;15.50;;;1.00;99.90;;;;;;5064345;28;20130;-71
2023/03/09 06:13:04;;;;;;;31.92;15.73;;;1.00;99.90;;;;;;5085400;28;20115;-71
2023/03/09 06:15:30;;;;;;;29.42;16.10;;;1.00;99.90;;;;;;5056043;28;20233;-71
2023/03/09 06:17:55;;;;;;;32.00;15.85;;;1.00;99.90;;;;;;5062018;28;20044;-71
2023/03/09 06:20:21;;;;;;;28.27;14.20;;;1.00;99.90;;;;;;5046209;28;20032;-71
2023/03/09 06:22:47;;;;;;;32.85;16.10;;;1.00;99.90;;;;;;5069660;28;20495;-71
2023/03/09 06:25:13;;;;;;;30.73;15.00;;;1.00;99.90;;;;;;5071381;28;20059;-71
2023/03/09 06:27:39;;;;;;;32.25;15.75;;;1.00;99.90;;;;;;5082603;28;20067;-71
2023/03/09 06:30:05;;;;;;;30.20;15.45;;;1.00;99.90;;;;;;5064199;28;20131;-71
2023/03/09 06:32:32;;;;;;;21.92;11.13;;;1.00;99.90;;;;;;5047340;28;20126;-71
2023/03/09 06:34:58;;;;;;;32.95;15.50;;;1.10;99.90;;;;;;5090452;28;20051;-71
2023/03/09 06:37:24;;;;;;;27.05;13.15;;;1.10;99.90;;;;;;5069328;28;20040;-71
2023/03/09 06:39:49;;;;;;;29.85;15.30;;;1.10;99.90;;;;;;5088176;28;20454;-71
2023/03/09 06:42:15;;;;;;;24.40;13.27;;;1.20;99.90;;;;;;5058471;28;20052;-71
2023/03/09 06:44:42;;;;;;;27.25;13.90;;;1.20;99.90;;;;;;5067145;28;20145;-71
2023/03/09 06:47:08;;;;;;;27.80;13.80;;;1.20;99.90;;;;;;5059218;28;20029;-71
2023/03/09 06:49:34;;;;;;;23.50;12.10;;;1.20;99.90;;;;;;5082695;28;20368;-72
2023/03/09 06:52:00;;;;;;;27.33;14.75;;;1.20;99.90;;;;;;5082231;28;20040;-71
2023/03/09 06:54:25;;;;;;;27.85;14.23;;;1.20;99.90;;;;;;5081679;28;20083;-71
2023/03/09 06:56:52;;;;;;;25.45;13.70;;;1.30;99.90;;;;;;5069521;28;20041;-71
2023/03/09 06:59:18;;;;;;;24.98;12.60;;;1.30;99.90;;;;;;5075538;28;20040;-71
2023/03/09 07:01:43;;;;;;;28.80;15.88;;;1.30;99.90;;;;;;5085356;28;20055;-71
2023/03/09 07:04:09;;;;;;;29.48;15.48;;;1.30;99.90;;;;;;5090371;28;20039;-71
2023/03/09 07:06:34;;;;;;;25.10;13.10;;;1.40;99.90;;;;;;5089872;28;20511;-71
2023/03/09 07:09:00;;;;;;;19.63;9.63;;;1.40;99.90;;;;;;5048344;28;20113;-71
2023/03/09 07:11:26;;;;;;;26.98;13.80;;;1.50;99.90;;;;;;5089321;28;20043;-71
2023/03/09 07:13:51;;;;;;;28.30;14.85;;;1.60;99.90;;;;;;5086935;28;20612;-71
2023/03/09 07:16:17;;;;;;;21.95;12.02;;;1.70;99.90;;;;;;5087837;28;20410;-71
2023/03/09 07:18:42;;;;;;;22.20;11.02;;;1.80;99.90;;;;;;5070234;28;20067;-71
2023/03/09 07:21:09;;;;;;;22.42;11.35;;;1.80;99.90;;;;;;5085319;28;20177;-71
2023/03/09 07:23:35;;;;;;;23.65;12.15;;;2.00;99.90;;;;;;5085830;28;20087;-71
2023/03/09 07:26:03;;;;;;;25.25;13.40;;;2.10;99.90;;;;;;5063847;28;20119;-71
2023/03/09 07:28:29;;;;;;;25.10;13.90;;;2.10;99.90;;;;;;5088905;28;20434;-71
2023/03/09 07:30:54;;;;;;;23.40;12.30;;;2.10;99.90;;;;;;5070347;28;20036;-71
2023/03/09 07:33:20;;;;;;;26.40;12.93;;;2.10;99.90;;;;;;5075289;28;20047;-71
2023/03/09 07:35:46;;;;;;;21.55;12.63;;;2.00;99.90;;;;;;5066435;28;20493;-71
2023/03/09 07:38:11;;;;;;;19.45;10.82;;;2.00;99.90;;;;;;5064870;28;20105;-72
2023/03/09 07:40:37;;;;;;;23.00;11.25;;;2.00;99.90;;;;;;5065825;28;20044;-71
2023/03/09 07:43:03;;;;;;;24.83;13.43;;;1.90;99.90;;;;;;5082386;28;20488;-71
2023/03/09 07:45:29;;;;;;;23.38;12.05;;;1.90;99.90;;;;;;5086315;28;20499;-71
2023/03/09 07:47:55;;;;;;;27.15;14.45;;;2.00;99.90;;;;;;5083170;28;20028;-71
2023/03/09 07:50:20;;;;;;;21.98;10.65;;;2.00;99.90;;;;;;5060946;28;20043;-72
2023/03/09 07:52:46;;;;;;;23.50;12.65;;;2.00;99.90;;;;;;5079076;28;20040;-72
2023/03/09 07:55:13;;;;;;;21.50;11.20;;;2.10;99.90;;;;;;5083787;28;20044;-72
2023/03/09 07:57:40;;;;;;;23.40;12.45;;;2.20;99.90;;;;;;5068379;28;20426;-72
2023/03/09 08:00:12;;;;;;;25.70;13.13;;;2.30;99.90;;;;;;5069260;28;20067;-72
2023/03/09 08:02:40;;;;;;;16.55;9.38;;;2.40;99.90;;;;;;5088489;28;20044;-72
2023/03/09 08:05:10;;;;;;;24.02;12.82;;;2.40;99.90;;;;;;5066166;28;20044;-72
2023/03/09 08:07:36;;;;;;;20.42;11.32;;;2.50;99.90;;;;;;5061947;28;20039;-72
2023/03/09 08:10:03;;;;;;;20.42;11.57;;;2.60;99.90;;;;;;5087144;28;20032;-72
2023/03/09 08:12:28;;;;;;;20.15;10.35;;;2.60;99.90;;;;;;5088268;28;20044;-72
2023/03/09 08:14:54;;;;;;;20.25;10.98;;;2.60;99.90;;;;;;5087407;28;20043;-72
2023/03/09 08:17:19;;;;;;;20.65;9.50;;;2.70;99.90;;;;;;5087458;28;20556;-72
2023/03/09 08:19:45;;;;;;;19.73;10.65;;;2.70;99.90;;;;;;5053099;28;20035;-72
2023/03/09 08:22:10;;;;;;;18.40;11.00;;;2.70;99.90;;;;;;5081161;28;20051;-73
2023/03/09 08:24:36;;;;;;;24.05;12.68;;;2.80;99.90;;;;;;5067858;28;20213;-72
2023/03/09 08:27:02;;;;;;;18.88;10.23;;;2.80;99.90;;;;;;5053002;28;20127;-72
2023/03/09 08:29:28;;;;;;;19.45;10.55;;;2.70;99.90;;;;;;5085100;28;20040;-72
2023/03/09 08:31:54;;;;;;;19.33;10.50;;;2.80;99.90;;;;;;5087122;28;20032;-72
2023/03/09 08:34:20;;;;;;;21.40;11.45;;;2.80;99.90;;;;;;5068812;28;20487;-72
2023/03/09 08:36:45;;;;;;;19.45;11.20;;;2.80;99.90;;;;;;5067694;28;20140;-72
2023/03/09 08:39:11;;;;;;;18.88;11.20;;;2.80;99.90;;;;;;5060467;28;20394;-72
2023/03/09 08:41:37;;;;;;;17.92;10.05;;;2.90;99.90;;;;;;5083990;28;20131;-72
2023/03/09 08:44:03;;;;;;;14.77;7.95;;;3.00;99.90;;;;;;5067061;28;20537;-72
2023/03/09 08:46:28;;;;;;;17.27;9.98;;;3.00;99.90;;;;;;5087037;28;20032;-72
2023/03/09 08:48:56;;;;;;;19.17;11.43;;;3.00;99.90;;;;;;5081124;28;20617;-72
2023/03/09 08:51:22;;;;;;;21.00;11.45;;;3.10;99.90;;;;;;5085274;28;20036;-72
2023/03/09 08:53:47;;;;;;;18.42;9.65;;;3.20;99.90;;;;;;5086519;28;20063;-72
2023/03/09 08:56:13;;;;;;;19.25;10.82;;;3.50;99.90;;;;;;5087849;28;20121;-72
2023/03/09 08:58:39;;;;;;;14.48;7.78;;;3.60;99.90;;;;;;5084898;28;20135;-72
2023/03/09 09:01:08;;;;;;;18.33;9.95;;;3.70;99.90;;;;;;5087149;28;20036;-72
2023/03/09 09:03:34;;;;;;;19.30;9.70;;;3.60;99.90;;;;;;5076996;28;20039;-72
2023/03/09 09:06:06;;;;;;;19.13;11.02;;;3.70;99.90;;;;;;5067650;28;20054;-72
2023/03/09 09:08:31;;;;;;;16.33;7.82;;;4.10;99.90;;;;;;5056714;28;20047;-72
2023/03/09 09:10:57;;;;;;;13.65;7.07;;;4.60;99.90;;;;;;5085178;28;20039;-72
2023/03/09 09:13:23;;;;;;;19.45;10.48;;;4.90;99.90;;;;;;5083067;28;20028;-72
2023/03/09 09:15:55;;;;;;;14.20;8.60;;;5.10;99.90;;;;;;5077877;28;23294;-73
2023/03/09 09:18:21;;;;;;;14.35;8.00;;;5.20;99.90;;;;;;5058603;28;20123;-72
2023/03/09 09:20:47;;;;;;;16.17;8.57;;;5.40;99.90;;;;;;5078484;28;20150;-72
2023/03/09 09:23:13;;;;;;;16.73;7.97;;;5.60;99.90;;;;;;5080821;28;20036;-72
2023/03/09 09:25:39;;;;;;;15.32;8.55;;;5.70;99.90;;;;;;5063464;28;20032;-72
2023/03/09 09:28:05;;;;;;;13.05;7.43;;;5.40;99.90;;;;;;5085054;28;20063;-72
2023/03/09 09:30:32;;;;;;;12.13;6.57;;;5.10;99.90;;;;;;5064156;28;20048;-72
2023/03/09 09:32:59;;;;;;;11.35;6.65;;;5.00;99.90;;;;;;5085779;28;20506;-72
2023/03/09 09:35:25;;;;;;;12.13;7.05;;;4.90;99.90;;;;;;5083036;28;20040;-72
2023/03/09 09:37:51;;;;;;;13.43;7.82;;;4.80;99.90;;;;;;5086037;28;20054;-73
2023/03/09 09:40:18;;;;;;;10.35;5.57;;;4.80;99.90;;;;;;5081860;28;20048;-72
2023/03/09 09:42:44;;;;;;;8.95;5.25;;;4.80;99.90;;;;;;5047607;28;20075;-72
2023/03/09 09:45:32;;;;;;;11.73;6.93;;;4.60;99.90;;;;;;5067846;28;20051;-72
2023/03/09 09:48:03;;;;;;;15.45;7.85;;;4.50;99.90;;;;;;5085441;28;20365;-72
2023/03/09 09:50:43;;;;;;;17.33;8.20;;;4.60;99.90;;;;;;5080177;28;20043;-72
2023/03/09 09:53:32;;;;;;;13.82;8.18;;;4.50;99.90;;;;;;5083343;28;20048;-72
2023/03/09 09:56:00;;;;;;;13.55;8.38;;;4.60;99.90;;;;;;5079642;28;20048;-72
2023/03/09 09:58:53;;;;;;;13.07;7.97;;;4.50;99.90;;;;;;5083308;28;20044;-72
2023/03/09 10:01:29;;;;;;;13.98;7.53;;;4.50;99.90;;;;;;5085604;28;20040;-72
2023/03/09 10:04:02;;;;;;;14.57;7.68;;;4.50;99.90;;;;;;5061332;28;20039;-72
2023/03/09 10:06:28;;;;;;;15.68;8.32;;;4.50;99.90;;;;;;5079019;28;20051;-72
2023/03/09 10:09:00;;;;;;;13.30;7.72;;;4.70;99.90;;;;;;5078536;28;20032;-73
2023/03/09 10:11:30;;;;;;;13.52;8.13;;;4.90;99.90;;;;;;5082712;28;20047;-72
2023/03/09 10:14:14;;;;;;;14.60;8.25;;;4.90;99.90;;;;;;5048085;28;20047;-72
2023/03/09 10:16:48;;;;;;;11.27;6.85;;;4.90;99.90;;;;;;5085593;28;20055;-73
2023/03/09 10:19:16;;;;;;;12.93;8.02;;;5.00;99.90;;;;;;5066933;28;20053;-72
2023/03/09 10:22:05;;;;;;;9.82;5.53;;;5.00;99.90;;;;;;5083311;28;20499;-73
2023/03/09 10:24:46;;;;;;;8.88;4.97;;;5.20;99.90;;;;;;5085398;28;20595;-72
2023/03/09 10:27:40;;;;;;;12.25;7.57;;;5.10;99.90;;;;;;5078368;28;21095;-73
2023/03/09 10:30:30;;;;;;;10.68;5.72;;;5.00;99.90;;;;;;5086015;28;20036;-72
2023/03/09 10:33:19;;;;;;;13.15;7.32;;;5.00;99.90;;;;;;5085839;28;20040;-72
2023/03/09 10:36:07;;;;;;;8.60;5.22;;;5.00;99.90;;;;;;5082783;28;20055;-72
2023/03/09 10:38:36;;;;;;;11.57;6.63;;;5.00;99.90;;;;;;5061538;28;20036;-72
2023/03/09 10:41:01;;;;;;;10.13;5.45;;;4.90;99.90;;;;;;5048703;28;20044;-72
2023/03/09 10:43:32;;;;;;;11.32;7.20;;;4.90;99.90;;;;;;5062066;28;20042;-72
2023/03/09 10:46:12;;;;;;;12.70;7.20;;;4.80;99.90;;;;;;5084488;28;20042;-72
2023/03/09 10:48:38;;;;;;;12.68;6.60;;;4.90;99.90;;;;;;5084398;28;20043;-72
2023/03/09 10:51:06;;;;;;;11.60;6.82;;;5.00;99.90;;;;;;5065349;28;20567;-72
2023/03/09 10:53:43;;;;;;;13.63;6.60;;;5.10;99.90;;;;;;5063210;28;20496;-72
2023/03/09 10:56:14;;;;;;;11.20;6.43;;;5.20;99.90;;;;;;5048303;28;20127;-72
2023/03/09 10:58:40;;;;;;;11.57;6.40;;;5.40;99.90;;;;;;5067633;28;20044;-72
2023/03/09 11:01:26;;;;;;;11.13;6.53;;;5.50;99.90;;;;;;5086139;28;20094;-72
2023/03/09 11:03:52;;;;;;;9.93;5.32;;;5.50;99.90;;;;;;5065802;28;20048;-72
2023/03/09 11:06:37;;;;;;;10.48;6.40;;;5.40;99.90;;;;;;5064716;28;20089;-72
2023/03/09 11:09:19;;;;;;;11.20;6.40;;;5.30;99.90;;;;;;5051038;28;20051;-72
2023/03/09 11:11:46;;;;;;;11.25;6.47;;;5.20;99.90;;;;;;5084734;28;20044;-72
2023/03/09 11:14:29;;;;;;;10.35;6.03;;;5.10;99.90;;;;;;5080239;28;20044;-72
2023/03/09 11:17:00;;;;;;;11.23;6.55;;;5.10;99.90;;;;;;5088565;28;20036;-72
2023/03/09 11:19:27;;;;;;;11.43;6.70;;;5.10;99.90;;;;;;5052657;28;20047;-72
2023/03/09 11:21:59;;;;;;;11.05;7.20;;;5.30;99.90;;;;;;5086346;28;20050;-72
2023/03/09 11:24:36;;;;;;;11.52;6.32;;;5.30;99.90;;;;;;5062338;28;20063;-72
2023/03/09 11:27:17;;;;;;;10.93;6.80;;;5.50;99.90;;;;;;5083594;28;20036;-73
2023/03/09 11:30:06;;;;;;;9.18;5.15;;;5.60;99.90;;;;;;5088538;28;20067;-72
2023/03/09 11:32:32;;;;;;;13.25;7.43;;;5.60;99.90;;;;;;5085745;28;20054;-72
2023/03/09 11:34:59;;;;;;;12.13;7.20;;;5.70;99.90;;;;;;5067283;28;20032;-72
2023/03/09 11:37:34;;;;;;;13.48;7.85;;;5.80;99.90;;;;;;5083694;28;20040;-72
2023/03/09 11:40:05;;;;;;;13.07;7.70;;;5.90;99.90;;;;;;5086674;28;20044;-72
2023/03/09 11:42:39;;;;;;;11.98;6.88;;;6.00;99.90;;;;;;5067740;28;20428;-72
2023/03/09 11:45:12;;;;;;;13.25;7.55;;;6.00;99.90;;;;;;5086604;28;20043;-72
2023/03/09 11:47:44;;;;;;;12.63;7.30;;;6.00;99.90;;;;;;5083714;28;20036;-72
2023/03/09 11:50:23;;;;;;;12.13;7.00;;;6.00;99.90;;;;;;5066259;28;20040;-72
2023/03/09 11:52:56;;;;;;;12.48;7.28;;;5.90;99.90;;;;;;5065331;28;20047;-72
2023/03/09 11:55:38;;;;;;;11.65;6.60;;;5.80;99.90;;;;;;5082715;28;20032;-72
2023/03/09 11:58:10;;;;;;;10.43;6.40;;;5.80;99.90;;;;;;5085882;28;20032;-72
2023/03/09 12:00:41;;;;;;;11.40;6.10;;;5.80;99.90;;;;;;5059356;28;20040;-72
2023/03/09 12:03:16;;;;;;;10.55;6.57;;;5.70;99.90;;;;;;5079254;28;20032;-72
2023/03/09 12:05:53;;;;;;;12.52;6.93;;;5.70;99.90;;;;;;5083176;28;20044;-73
2023/03/09 12:08:31;;;;;;;11.85;7.13;;;5.60;99.90;;;;;;5065414;28;20085;-72
2023/03/09 12:11:00;;;;;;;10.68;5.95;;;5.70;99.90;;;;;;5082537;28;20043;-72
2023/03/09 12:13:36;;;;;;;10.63;7.28;;;5.80;99.90;;;;;;5047708;28;20845;-72
2023/03/09 12:16:14;;;;;;;12.88;7.22;;;5.70;99.90;;;;;;5064755;28;20048;-72
2023/03/09 12:18:59;;;;;;;10.95;6.55;;;5.70;99.90;;;;;;5074825;28;20139;-72
2023/03/09 12:21:40;;;;;;;12.80;6.80;;;5.80;99.90;;;;;;5081603;28;20044;-72
2023/03/09 12:24:31;;;;;;;12.63;6.88;;;5.80;99.90;;;;;;5060384;28;20135;-72
2023/03/09 12:26:59;;;;;;;12.57;6.85;;;5.80;99.90;;;;;;5083861;28;20048;-72
2023/03/09 12:29:39;;;;;;;11.30;6.70;;;5.80;99.90;;;;;;5085141;28;20031;-72
2023/03/09 12:32:25;;;;;;;11.68;7.03;;;5.70;99.90;;;;;;5078114;28;20452;-72
2023/03/09 12:35:04;;;;;;;11.18;6.90;;;5.60;99.90;;;;;;5067522;28;20369;-72
2023/03/09 12:37:30;;;;;;;11.50;7.15;;;5.50;99.90;;;;;;5087269;28;20034;-72
2023/03/09 12:40:27;;;;;;;11.35;7.03;;;5.50;99.90;;;;;;5084345;28;20032;-72
2023/03/09 12:43:15;;;;;;;10.77;5.70;;;5.50;99.90;;;;;;5063648;28;20079;-72
2023/03/09 12:45:42;;;;;;;13.20;8.15;;;5.50;99.90;;;;;;5082963;28;20035;-72
2023/03/09 12:48:15;;;;;;;9.70;5.55;;;5.40;99.90;;;;;;5076877;28;20036;-72
2023/03/09 12:50:46;;;;;;;11.82;7.30;;;5.40;99.90;;;;;;5085592;28;20055;-72